createdAt,value
2019-01-21T00:00:02.270Z,28.60
2019-01-21T00:01:02.286Z,33.10
2019-01-21T00:03:14.754Z,31.00
2019-01-21T00:04:13.218Z,32.20
2019-01-21T00:05:21.177Z,33.60
2019-01-21T00:06:13.072Z,33.50
2019-01-21T00:07:13.159Z,33.80
2019-01-21T00:08:13.020Z,36.20
2019-01-21T00:09:13.027Z,34.10
2019-01-21T00:10:12.944Z,34.30
2019-01-21T00:11:12.943Z,32.70
2019-01-21T00:12:12.929Z,36.10
2019-01-21T00:13:12.917Z,31.60
2019-01-21T00:14:12.929Z,36.30
2019-01-21T00:15:12.898Z,31.70
2019-01-21T00:16:12.884Z,31.80
2019-01-21T00:17:12.887Z,32.70
2019-01-21T00:18:12.892Z,33.70
2019-01-21T00:19:12.907Z,34.40
2019-01-21T00:20:12.843Z,36.20
2019-01-21T00:21:12.831Z,38.50
2019-01-21T00:22:12.825Z,33.40
2019-01-21T00:23:12.828Z,35.00
2019-01-21T00:24:12.801Z,35.10
2019-01-21T00:25:12.820Z,33.90
2019-01-21T00:26:12.791Z,33.10
2019-01-21T00:27:12.828Z,35.00
2019-01-21T00:28:12.775Z,31.20
2019-01-21T00:29:12.753Z,35.50
2019-01-21T00:30:12.786Z,34.30
2019-01-21T00:31:12.735Z,33.30
2019-01-21T00:32:12.731Z,32.30
2019-01-21T00:33:12.720Z,36.10
2019-01-21T00:34:12.706Z,38.30
2019-01-21T00:35:12.730Z,35.80
2019-01-21T00:36:12.715Z,36.00
2019-01-21T00:37:20.335Z,34.00
2019-01-21T00:38:12.756Z,32.90
2019-01-21T00:39:20.342Z,32.90
2019-01-21T00:40:12.733Z,31.60
2019-01-21T00:41:12.850Z,34.90
2019-01-21T00:42:12.643Z,32.70
2019-01-21T00:43:12.661Z,32.70
2019-01-21T00:44:20.297Z,31.50
2019-01-21T00:45:12.691Z,33.70
2019-01-21T00:46:12.842Z,35.20
2019-01-21T00:47:12.618Z,36.50
2019-01-21T00:48:12.603Z,34.60
2019-01-21T00:49:12.561Z,35.90
2019-01-21T00:50:12.556Z,34.20
2019-01-21T00:51:12.542Z,37.70
2019-01-21T00:52:12.543Z,38.10
2019-01-21T00:53:20.316Z,35.00
2019-01-21T00:54:12.585Z,33.50
2019-01-21T00:55:12.707Z,31.70
2019-01-21T00:56:20.187Z,34.80
2019-01-21T00:57:12.617Z,37.70
2019-01-21T00:58:12.556Z,37.30
2019-01-21T00:59:22.461Z,31.80
2019-01-21T01:00:12.559Z,37.50
2019-01-21T01:01:12.540Z,40.20
2019-01-21T01:02:12.468Z,35.00
2019-01-21T01:03:12.415Z,37.20
2019-01-21T01:04:12.403Z,41.90
2019-01-21T01:05:12.396Z,42.00
2019-01-21T01:06:12.385Z,38.60
2019-01-21T01:07:20.089Z,39.20
2019-01-21T01:08:12.443Z,36.60
2019-01-21T01:09:12.540Z,35.20
2019-01-21T01:10:12.354Z,38.60
2019-01-21T01:11:12.335Z,41.40
2019-01-21T01:12:12.329Z,40.60
2019-01-21T01:13:12.357Z,40.70
2019-01-21T01:14:12.303Z,41.50
2019-01-21T01:15:12.293Z,38.70
2019-01-21T01:16:12.286Z,37.40
2019-01-21T01:17:12.271Z,42.50
2019-01-21T01:18:12.289Z,44.30
2019-01-21T01:19:12.257Z,45.10
2019-01-21T01:20:12.246Z,43.80
2019-01-21T01:21:12.231Z,43.40
2019-01-21T01:22:12.245Z,48.70
2019-01-21T01:23:12.236Z,49.10
2019-01-21T01:24:12.211Z,47.00
2019-01-21T01:25:12.205Z,42.90
2019-01-21T01:26:12.188Z,44.60
2019-01-21T01:27:12.174Z,44.50
2019-01-21T01:28:12.166Z,41.80
2019-01-21T01:29:12.175Z,40.00
2019-01-21T01:30:12.148Z,45.00
2019-01-21T01:31:12.133Z,43.10
2019-01-21T01:32:12.148Z,41.80
2019-01-21T01:33:12.110Z,44.10
2019-01-21T01:34:12.134Z,41.90
2019-01-21T01:35:12.116Z,43.10
2019-01-21T01:36:12.080Z,41.00
2019-01-21T01:37:12.066Z,36.80
2019-01-21T01:38:12.066Z,38.60
2019-01-21T01:39:12.051Z,38.50
2019-01-21T01:40:12.099Z,38.10
2019-01-21T01:41:12.032Z,38.10
2019-01-21T01:42:12.026Z,41.90
2019-01-21T01:43:13.345Z,37.70
2019-01-21T01:44:11.996Z,39.80
2019-01-21T01:45:12.013Z,40.90
2019-01-21T01:46:12.000Z,37.80
2019-01-21T01:47:11.976Z,42.50
2019-01-21T01:48:11.977Z,40.60
2019-01-21T01:49:11.965Z,39.80
2019-01-21T01:50:11.971Z,39.70
2019-01-21T01:51:11.937Z,43.00
2019-01-21T01:52:11.963Z,37.20
2019-01-21T01:53:11.915Z,42.00
2019-01-21T01:54:11.899Z,43.30
2019-01-21T01:55:11.897Z,38.00
2019-01-21T01:56:11.940Z,40.00
2019-01-21T01:57:11.871Z,38.30
2019-01-21T01:58:11.864Z,35.40
2019-01-21T01:59:11.860Z,38.90
2019-01-21T02:00:11.841Z,36.70
2019-01-21T02:01:11.867Z,39.90
2019-01-21T02:02:11.828Z,35.60
2019-01-21T02:03:11.855Z,35.70
2019-01-21T02:04:11.803Z,35.00
2019-01-21T02:05:11.795Z,36.70
2019-01-21T02:06:11.779Z,33.60
2019-01-21T02:07:11.788Z,33.70
2019-01-21T02:08:11.761Z,42.00
2019-01-21T02:09:11.778Z,41.00
2019-01-21T02:10:11.739Z,40.60
2019-01-21T02:11:11.733Z,32.20
2019-01-21T02:12:11.742Z,37.20
2019-01-21T02:13:11.725Z,36.80
2019-01-21T02:14:11.738Z,37.10
2019-01-21T02:15:11.693Z,37.00
2019-01-21T02:16:11.716Z,38.80
2019-01-21T02:17:11.695Z,39.80
2019-01-21T02:18:11.659Z,40.10
2019-01-21T02:19:11.657Z,34.90
2019-01-21T02:20:11.717Z,38.50
2019-01-21T02:21:11.631Z,35.80
2019-01-21T02:22:11.930Z,36.10
2019-01-21T02:23:11.618Z,36.40
2019-01-21T02:24:11.609Z,38.30
2019-01-21T02:25:11.594Z,39.40
2019-01-21T02:26:11.579Z,38.50
2019-01-21T02:27:11.642Z,36.10
2019-01-21T02:28:11.559Z,39.80
2019-01-21T02:29:11.547Z,33.70
2019-01-21T02:30:11.539Z,35.00
2019-01-21T02:31:11.539Z,37.00
2019-01-21T02:32:11.548Z,36.40
2019-01-21T02:33:11.509Z,39.60
2019-01-21T02:34:11.495Z,38.30
2019-01-21T02:35:11.491Z,37.50
2019-01-21T02:36:11.513Z,37.50
2019-01-21T02:37:11.509Z,38.10
2019-01-21T02:38:11.469Z,35.00
2019-01-21T02:39:11.448Z,40.00
2019-01-21T02:40:11.438Z,38.60
2019-01-21T02:41:11.433Z,37.90
2019-01-21T02:42:11.548Z,39.80
2019-01-21T02:43:11.416Z,37.80
2019-01-21T02:44:11.396Z,39.00
2019-01-21T02:45:11.391Z,41.60
2019-01-21T02:46:11.390Z,36.40
2019-01-21T02:47:11.398Z,42.80
2019-01-21T02:48:11.379Z,37.90
2019-01-21T02:49:11.386Z,40.40
2019-01-21T02:50:11.361Z,43.50
2019-01-21T02:51:11.326Z,38.70
2019-01-21T02:52:11.334Z,37.40
2019-01-21T02:53:11.331Z,39.60
2019-01-21T02:54:11.305Z,39.10
2019-01-21T02:55:11.301Z,39.60
2019-01-21T02:56:11.289Z,40.80
2019-01-21T02:57:11.276Z,40.30
2019-01-21T02:58:11.266Z,42.20
2019-01-21T02:59:11.275Z,43.40
2019-01-21T03:00:11.238Z,41.00
2019-01-21T03:01:11.240Z,41.40
2019-01-21T03:02:11.226Z,38.60
2019-01-21T03:03:11.222Z,41.90
2019-01-21T03:04:11.226Z,41.30
2019-01-21T03:05:11.206Z,44.90
2019-01-21T03:06:11.179Z,43.40
2019-01-21T03:07:11.177Z,46.10
2019-01-21T03:08:11.195Z,40.00
2019-01-21T03:09:11.167Z,42.70
2019-01-21T03:10:11.145Z,41.00
2019-01-21T03:11:11.138Z,43.30
2019-01-21T03:12:11.122Z,46.80
2019-01-21T03:13:11.864Z,43.30
2019-01-21T03:14:11.126Z,41.90
2019-01-21T03:15:11.105Z,38.90
2019-01-21T03:16:11.082Z,39.40
2019-01-21T03:17:11.131Z,42.00
2019-01-21T03:18:11.059Z,41.20
2019-01-21T03:19:11.050Z,43.00
2019-01-21T03:20:11.061Z,42.60
2019-01-21T03:21:11.032Z,41.20
2019-01-21T03:22:11.042Z,45.10
2019-01-21T03:23:11.015Z,40.80
2019-01-21T03:24:11.046Z,41.50
2019-01-21T03:25:10.996Z,43.90
2019-01-21T03:26:10.979Z,46.30
2019-01-21T03:27:10.990Z,42.20
2019-01-21T03:28:10.963Z,43.10
2019-01-21T03:29:10.952Z,45.90
2019-01-21T03:30:11.011Z,43.90
2019-01-21T03:31:10.932Z,42.40
2019-01-21T03:32:10.929Z,46.50
2019-01-21T03:33:10.910Z,51.40
2019-01-21T03:34:10.947Z,46.90
2019-01-21T03:35:10.935Z,47.80
2019-01-21T03:36:10.902Z,40.60
2019-01-21T03:37:10.881Z,43.00
2019-01-21T03:38:10.905Z,43.80
2019-01-21T03:39:10.847Z,41.30
2019-01-21T03:40:10.880Z,44.30
2019-01-21T03:41:10.831Z,48.90
2019-01-21T03:42:10.826Z,44.40
2019-01-21T03:43:10.823Z,40.30
2019-01-21T03:44:10.807Z,42.80
2019-01-21T03:45:10.793Z,45.80
2019-01-21T03:46:10.803Z,46.70
2019-01-21T03:47:10.794Z,43.90
2019-01-21T03:48:16.519Z,43.10
2019-01-21T03:49:11.757Z,47.00
2019-01-21T03:50:10.739Z,44.10
2019-01-21T03:51:12.429Z,39.40
2019-01-21T03:52:10.718Z,43.40
2019-01-21T03:53:10.709Z,47.20
2019-01-21T03:54:10.706Z,44.80
2019-01-21T03:55:10.703Z,43.20
2019-01-21T03:56:10.699Z,45.60
2019-01-21T03:57:10.714Z,44.40
2019-01-21T03:58:10.668Z,45.60
2019-01-21T03:59:10.653Z,43.40
2019-01-21T04:00:10.643Z,43.20
2019-01-21T04:01:10.672Z,43.70
2019-01-21T04:02:10.627Z,47.90
2019-01-21T04:03:10.622Z,43.10
2019-01-21T04:04:10.618Z,42.90
2019-01-21T04:05:10.594Z,45.50
2019-01-21T04:06:10.580Z,41.70
2019-01-21T04:07:10.597Z,46.60
2019-01-21T04:08:10.577Z,38.30
2019-01-21T04:09:10.555Z,39.10
2019-01-21T04:10:10.539Z,43.50
2019-01-21T04:11:10.534Z,41.80
2019-01-21T04:12:10.541Z,42.70
2019-01-21T04:13:10.561Z,40.90
2019-01-21T04:14:10.502Z,41.10
2019-01-21T04:15:10.495Z,45.50
2019-01-21T04:16:10.483Z,41.70
2019-01-21T04:17:10.512Z,41.80
2019-01-21T04:18:10.466Z,42.80
2019-01-21T04:19:10.449Z,42.30
2019-01-21T04:20:10.440Z,37.80
2019-01-21T04:21:10.436Z,43.10
2019-01-21T04:22:10.429Z,41.10
2019-01-21T04:23:10.434Z,44.60
2019-01-21T04:24:10.460Z,42.50
2019-01-21T04:25:10.402Z,49.10
2019-01-21T04:26:10.388Z,42.80
2019-01-21T04:27:10.376Z,45.50
2019-01-21T04:28:10.381Z,44.20
2019-01-21T04:29:10.369Z,41.50
2019-01-21T04:30:10.345Z,43.10
2019-01-21T04:31:10.330Z,41.70
2019-01-21T04:32:10.324Z,41.30
2019-01-21T04:33:10.336Z,43.50
2019-01-21T04:34:10.347Z,40.90
2019-01-21T04:35:10.299Z,43.50
2019-01-21T04:36:10.287Z,43.60
2019-01-21T04:37:10.318Z,42.00
2019-01-21T04:38:10.281Z,43.90
2019-01-21T04:39:10.267Z,40.90
2019-01-21T04:40:10.242Z,46.10
2019-01-21T04:41:10.232Z,47.20
2019-01-21T04:45:54.072Z,42.90
2019-01-21T04:47:11.391Z,45.00
2019-01-21T04:47:54.032Z,39.60
2019-01-21T04:49:24.313Z,39.70
2019-01-21T04:49:56.028Z,42.90
2019-01-21T04:50:55.848Z,41.50
2019-01-21T04:54:37.327Z,43.10
2019-01-21T04:55:34.163Z,44.20
2019-01-21T04:56:40.327Z,37.50
2019-01-21T05:04:21.632Z,47.10
2019-01-21T05:05:25.761Z,46.60
2019-01-21T05:06:32.814Z,42.90
2019-01-21T05:07:24.669Z,43.40
2019-01-21T05:09:23.310Z,41.20
2019-01-21T05:10:24.643Z,40.60
2019-01-21T05:11:22.393Z,40.90
2019-01-21T05:12:21.386Z,45.00
2019-01-21T05:13:27.177Z,44.70
2019-01-21T05:14:22.710Z,41.20
2019-01-21T05:15:29.926Z,43.60
2019-01-21T05:16:17.265Z,40.90
2019-01-21T05:17:17.275Z,43.80
2019-01-21T05:18:17.245Z,44.80
2019-01-21T05:23:08.761Z,43.40
2019-01-21T05:24:08.995Z,41.30
2019-01-21T05:25:08.662Z,42.60
2019-01-21T05:26:08.863Z,42.40
2019-01-21T05:27:08.601Z,42.30
2019-01-21T05:28:08.787Z,45.80
2019-01-21T05:29:08.760Z,43.10
2019-01-21T05:30:08.516Z,42.30
2019-01-21T05:31:09.176Z,42.80
2019-01-21T05:32:16.487Z,46.20
2019-01-21T05:33:08.567Z,48.90
2019-01-21T05:34:10.413Z,42.30
2019-01-21T05:35:09.434Z,42.80
2019-01-21T05:36:09.225Z,43.40
2019-01-21T05:37:08.744Z,44.40
2019-01-21T05:38:08.886Z,43.40
2019-01-21T05:39:08.310Z,47.60
2019-01-21T05:40:08.428Z,44.10
2019-01-21T05:41:08.586Z,47.70
2019-01-21T05:42:08.616Z,50.40
2019-01-21T05:43:08.724Z,43.70
2019-01-21T07:05:13.904Z,46.70
2019-01-21T07:06:14.141Z,46.70
2019-01-21T07:07:13.309Z,43.60
2019-01-21T07:08:13.165Z,48.80
2019-01-21T07:09:13.116Z,42.90
2019-01-21T07:10:13.110Z,45.80
2019-01-21T07:11:13.088Z,46.10
2019-01-21T07:12:13.099Z,44.10
2019-01-21T07:13:13.165Z,38.50
2019-01-21T07:14:14.188Z,42.90
2019-01-21T07:15:13.277Z,44.40
2019-01-21T07:16:13.953Z,48.30
2019-01-21T07:17:13.358Z,43.90
2019-01-21T07:18:15.474Z,43.40
2019-01-21T07:19:13.117Z,47.00
2019-01-21T07:20:13.091Z,47.10
2019-01-21T07:21:13.382Z,48.10
2019-01-21T07:22:13.042Z,45.10
2019-01-21T07:23:13.019Z,44.20
2019-01-21T07:24:13.102Z,51.30
2019-01-21T07:25:12.926Z,48.20
2019-01-21T07:26:12.952Z,49.10
2019-01-21T07:27:12.938Z,51.60
2019-01-21T07:28:13.026Z,46.30
2019-01-21T07:29:13.310Z,50.10
2019-01-21T07:30:12.915Z,49.10
2019-01-21T07:31:12.984Z,56.10
2019-01-21T07:32:13.112Z,52.10
2019-01-21T07:33:13.321Z,50.50
2019-01-21T07:34:13.061Z,51.70
2019-01-21T07:35:13.076Z,54.20
2019-01-21T07:36:13.095Z,55.90
2019-01-21T07:37:13.371Z,56.40
2019-01-21T07:39:12.833Z,54.10
2019-01-21T07:40:13.596Z,53.20
2019-01-21T07:41:13.532Z,49.40
2019-01-21T07:42:12.712Z,56.70
2019-01-21T07:43:12.861Z,54.70
2019-01-21T07:44:13.680Z,59.00
2019-01-21T07:45:13.303Z,52.20
2019-01-21T07:46:12.874Z,56.80
2019-01-21T07:47:13.421Z,56.30
2019-01-21T07:48:12.790Z,51.80
2019-01-21T07:49:17.507Z,53.20
2019-01-21T07:50:13.784Z,54.20
2019-01-21T07:51:13.119Z,59.20
2019-01-21T07:52:13.103Z,54.00
2019-01-21T07:53:12.694Z,62.00
2019-01-21T07:54:12.961Z,57.70
2019-01-21T07:55:13.349Z,59.00
2019-01-21T07:56:12.690Z,60.20
2019-01-21T07:57:12.600Z,56.50
2019-01-21T07:58:12.590Z,63.20
2019-01-21T07:59:12.652Z,54.80
2019-01-21T08:00:12.676Z,54.30
2019-01-21T08:01:13.233Z,59.90
2019-01-21T08:02:12.587Z,61.40
2019-01-21T08:03:13.161Z,58.90
2019-01-21T08:04:12.695Z,58.10
2019-01-21T08:05:12.483Z,57.90
2019-01-21T08:06:12.834Z,56.70
2019-01-21T08:07:13.266Z,56.00
2019-01-21T08:08:12.761Z,54.70
2019-01-21T08:09:12.613Z,64.10
2019-01-21T08:10:12.739Z,57.10
2019-01-21T08:11:12.501Z,65.30
2019-01-21T08:12:13.080Z,56.00
2019-01-21T08:13:12.519Z,54.80
2019-01-21T08:14:12.647Z,57.50
2019-01-21T08:15:12.783Z,59.30
2019-01-21T08:16:12.726Z,54.80
2019-01-21T08:17:12.928Z,55.30
2019-01-21T08:18:12.451Z,54.40
2019-01-21T08:19:12.706Z,50.30
2019-01-21T08:20:12.579Z,52.50
2019-01-21T08:21:12.675Z,51.00
2019-01-21T08:22:12.517Z,52.40
2019-01-21T08:23:12.448Z,50.40
2019-01-21T08:24:12.363Z,52.00
2019-01-21T08:25:12.371Z,48.00
2019-01-21T08:26:12.481Z,54.70
2019-01-21T08:27:13.088Z,49.70
2019-01-21T08:28:12.320Z,48.00
2019-01-21T08:29:12.390Z,50.50
2019-01-21T08:30:12.294Z,53.90
2019-01-21T08:31:12.692Z,49.20
2019-01-21T08:32:14.118Z,51.90
2019-01-21T08:33:12.308Z,52.30
2019-01-21T08:34:12.485Z,57.60
2019-01-21T08:35:12.349Z,48.20
2019-01-21T16:46:42.019Z,51.50
2019-01-21T16:50:31.777Z,51.80
2019-01-21T16:51:31.637Z,56.50
2019-01-21T16:52:31.527Z,53.90
2019-01-21T16:53:31.439Z,56.30
2019-01-21T16:54:31.297Z,54.40
2019-01-21T16:55:31.246Z,57.00
2019-01-21T16:56:31.244Z,57.00
2019-01-21T16:57:31.261Z,57.10
2019-01-21T16:58:31.212Z,59.00
2019-01-21T16:59:31.179Z,61.10
2019-01-21T17:00:31.318Z,62.30
2019-01-21T17:01:31.154Z,61.80
2019-01-21T17:02:31.199Z,58.70
2019-01-21T17:03:31.224Z,62.70
2019-01-21T17:04:32.762Z,57.50
2019-01-21T17:05:31.350Z,58.50
2019-01-21T17:06:31.837Z,56.40
2019-01-21T17:07:31.120Z,60.50
2019-01-21T17:08:31.098Z,56.30
2019-01-21T17:09:31.094Z,64.00
2019-01-21T17:10:31.090Z,58.00
2019-01-21T17:13:00.482Z,65.20
2019-01-21T17:14:00.318Z,62.50
2019-01-21T17:15:00.324Z,61.90
2019-01-21T17:16:00.266Z,63.40
2019-01-21T17:17:00.198Z,65.40
2019-01-21T17:18:00.201Z,61.60
2019-01-21T17:19:00.195Z,64.90
2019-01-21T17:20:00.214Z,63.70
2019-01-21T17:21:00.178Z,61.20
2019-01-21T17:22:00.189Z,63.40
2019-01-21T17:23:00.149Z,62.20
2019-01-21T17:24:00.137Z,66.20
2019-01-21T17:25:00.238Z,63.30
2019-01-21T17:26:00.151Z,70.20
2019-01-21T17:27:00.158Z,65.00
2019-01-21T17:28:00.090Z,64.30
2019-01-21T17:29:00.073Z,61.80
2019-01-21T17:30:00.095Z,64.20
2019-01-21T17:31:00.087Z,65.10
2019-01-21T17:32:00.059Z,67.30
2019-01-21T17:33:00.057Z,65.10
2019-01-21T17:34:00.024Z,63.30
2019-01-21T17:35:00.226Z,63.50
2019-01-21T17:36:00.019Z,67.80
2019-01-21T17:37:00.007Z,65.50
2019-01-21T17:38:00.031Z,66.70
2019-01-21T17:38:59.992Z,67.40
2019-01-21T17:39:59.974Z,69.70
2019-01-21T17:40:59.952Z,66.00
2019-01-21T17:41:59.954Z,69.90
2019-01-21T17:42:59.974Z,66.60
2019-01-21T17:43:59.933Z,66.60
2019-01-21T17:44:59.921Z,68.60
2019-01-21T17:45:59.905Z,63.70
2019-01-21T17:46:59.912Z,71.30
2019-01-21T17:47:59.883Z,66.10
2019-01-21T17:48:59.897Z,67.60
2019-01-21T17:49:59.859Z,67.80
2019-01-21T17:50:59.852Z,71.00
2019-01-21T17:51:59.844Z,65.30
2019-01-21T17:52:59.837Z,63.00
2019-01-21T17:53:59.858Z,69.70
2019-01-21T17:54:59.829Z,66.90
2019-01-21T17:55:59.796Z,67.30
2019-01-21T17:56:59.792Z,66.80
2019-01-21T17:57:59.784Z,67.80
2019-01-21T17:58:59.840Z,73.40
2019-01-21T17:59:59.769Z,68.40
2019-01-21T18:00:59.762Z,67.80
2019-01-21T18:01:59.731Z,69.50
2019-01-21T18:02:59.729Z,72.30
2019-01-21T18:03:59.758Z,64.80
2019-01-21T18:04:59.715Z,71.60
2019-01-21T18:05:59.705Z,71.10
2019-01-21T18:06:59.755Z,73.90
2019-01-21T18:07:59.703Z,65.70
2019-01-21T18:08:59.666Z,69.40
2019-01-21T18:09:59.676Z,66.10
2019-01-21T18:10:59.656Z,66.20
2019-01-21T18:11:59.667Z,69.40
2019-01-21T18:12:59.633Z,68.00
2019-01-21T18:13:59.661Z,64.60
2019-01-21T18:14:59.640Z,70.20
2019-01-21T18:15:59.616Z,70.40
2019-01-21T18:16:59.579Z,76.50
2019-01-21T18:17:59.584Z,71.50
2019-01-21T18:18:59.839Z,76.80
2019-01-21T18:19:59.606Z,67.80
2019-01-21T18:20:59.549Z,75.50
2019-01-21T18:21:59.643Z,71.20
2019-01-21T18:22:59.660Z,72.80
2019-01-21T18:23:59.590Z,64.40
2019-01-21T18:24:59.677Z,70.60
2019-01-21T18:25:59.560Z,75.70
2019-01-21T18:26:59.661Z,70.20
2019-01-21T18:27:59.496Z,71.30
2019-01-21T18:28:59.504Z,72.40
2019-01-21T18:29:59.520Z,77.30
2019-01-21T18:30:59.497Z,69.60
2019-01-21T18:31:59.483Z,76.00
2019-01-21T18:32:59.424Z,68.40
2019-01-21T18:33:59.524Z,69.10
2019-01-21T18:34:59.527Z,70.20
2019-01-21T18:35:59.512Z,68.90
2019-01-21T18:36:59.461Z,67.30
2019-01-21T18:37:59.398Z,68.50
2019-01-21T18:38:59.467Z,71.70
2019-01-21T18:39:59.365Z,66.50
2019-01-21T18:40:59.462Z,66.50
2019-01-21T18:41:59.492Z,67.70
2019-01-21T18:42:59.513Z,65.40
2019-01-21T18:43:59.418Z,67.10
2019-01-21T18:44:59.327Z,67.20
2019-01-21T18:45:59.309Z,69.70
2019-01-21T18:46:59.372Z,62.30
2019-01-21T18:47:59.355Z,63.40
2019-01-21T18:48:59.265Z,64.00
2019-01-21T18:49:59.282Z,63.90
2019-01-21T18:50:59.324Z,67.40
2019-01-21T18:51:59.347Z,65.40
2019-01-21T18:52:59.258Z,65.60
2019-01-21T18:53:59.257Z,64.70
2019-01-21T18:54:59.239Z,61.70
2019-01-21T18:55:59.227Z,65.80
2019-01-21T18:56:59.258Z,63.80
2019-01-21T18:57:59.200Z,64.80
2019-01-21T18:58:59.192Z,61.90
2019-01-21T18:59:59.222Z,64.10
2019-01-21T19:00:59.216Z,59.20
2019-01-21T19:01:59.199Z,65.10
2019-01-21T19:02:59.181Z,70.00
2019-01-21T19:03:59.147Z,62.10
2019-01-21T19:04:59.243Z,68.40
2019-01-21T19:05:59.169Z,65.00
2019-01-21T19:06:59.139Z,64.10
2019-01-21T19:07:59.169Z,60.00
2019-01-21T19:08:59.078Z,62.00
2019-01-21T19:09:59.093Z,62.30
2019-01-21T19:10:59.036Z,60.30
2019-01-21T19:11:59.018Z,59.90
2019-01-21T19:12:59.053Z,67.60
2019-01-21T19:13:58.995Z,60.30
2019-01-21T19:14:58.987Z,66.10
2019-01-21T19:15:58.993Z,62.00
2019-01-21T19:16:58.977Z,65.50
2019-01-21T19:17:58.985Z,66.00
2019-01-21T19:18:58.962Z,65.00
2019-01-21T19:19:58.978Z,62.70
2019-01-21T19:20:58.925Z,63.80
2019-01-21T19:22:06.594Z,66.00
2019-01-21T19:22:59.047Z,57.30
2019-01-21T19:24:06.504Z,58.80
2019-01-21T19:24:58.940Z,62.10
2019-01-21T19:26:06.478Z,65.10
2019-01-21T19:26:58.942Z,55.60
2019-01-21T19:28:06.528Z,58.20
2019-01-21T19:28:58.908Z,59.10
2019-01-21T19:30:06.614Z,55.50
2019-01-21T19:30:58.888Z,57.60
2019-01-21T19:32:06.663Z,60.10
2019-01-21T19:32:58.870Z,57.50
2019-01-21T19:33:58.897Z,59.40
2019-01-21T19:34:58.954Z,56.40
2019-01-21T19:35:58.793Z,63.30
2019-01-21T19:36:58.779Z,60.60
2019-01-21T19:37:58.880Z,59.10
2019-01-21T19:38:58.766Z,61.70
2019-01-21T19:40:06.392Z,58.50
2019-01-21T19:41:49.103Z,57.50
2019-01-21T19:42:56.646Z,56.40
2019-01-21T19:43:49.124Z,61.30
2019-01-21T19:46:04.978Z,60.30
2019-01-21T19:47:13.205Z,57.70
2019-01-21T19:48:04.660Z,57.70
2019-01-21T19:49:12.406Z,53.20
2019-01-21T19:50:04.701Z,61.70
2019-01-21T19:51:13.118Z,62.90
2019-01-21T19:52:04.713Z,60.40
2019-01-21T19:54:22.059Z,57.90
2019-01-21T19:55:29.170Z,58.00
2019-01-21T19:56:21.362Z,56.80
2019-01-21T19:57:28.916Z,58.00
2019-01-21T19:58:21.449Z,52.80
2019-01-21T19:59:28.996Z,64.40
2019-01-21T20:00:21.331Z,58.00
2019-01-21T20:01:29.010Z,57.20
2019-01-21T20:02:21.341Z,59.90
2019-01-21T20:03:21.371Z,54.70
2019-01-21T20:04:21.252Z,58.80
2019-01-21T20:05:21.247Z,60.30
2019-01-21T20:06:21.255Z,59.60
2019-01-21T20:07:28.819Z,56.00
2019-01-21T20:08:21.275Z,59.90
2019-01-21T20:09:22.113Z,61.30
2019-01-21T20:10:28.846Z,60.00
2019-01-21T20:11:21.206Z,58.40
2019-01-21T20:12:29.657Z,61.30
2019-01-21T20:13:21.213Z,68.00
2019-01-21T20:15:38.329Z,61.50
2019-01-21T20:16:37.850Z,63.00
2019-01-21T20:17:45.637Z,63.70
2019-01-21T20:18:37.791Z,67.10
2019-01-21T20:19:37.901Z,63.90
2019-01-21T20:20:46.200Z,65.00
2019-01-21T20:23:01.774Z,67.10
2019-01-21T20:24:01.208Z,61.40
2019-01-21T20:25:01.397Z,65.20
2019-01-21T20:26:01.260Z,62.60
2019-01-21T20:27:13.232Z,67.40
2019-01-21T20:28:05.847Z,67.20
2019-01-21T20:29:07.753Z,64.70
2019-01-21T20:30:07.899Z,64.50
2019-01-21T20:32:21.226Z,67.90
2019-01-21T20:34:46.339Z,61.00
2019-01-21T20:37:02.361Z,66.90
2019-01-21T20:38:02.346Z,63.60
2019-01-21T20:39:10.105Z,65.10
2019-01-21T20:41:40.049Z,68.50
2019-01-21T20:42:48.163Z,74.00
2019-01-21T20:43:43.540Z,72.50
2019-01-21T20:45:04.695Z,66.20
2019-01-21T20:45:51.628Z,66.00
2019-01-21T20:48:08.454Z,67.50
2019-01-21T20:50:53.177Z,68.30
2019-01-21T20:51:52.974Z,69.80
2019-01-21T20:52:53.446Z,65.50
2019-01-21T20:53:52.875Z,65.10
2019-01-21T20:54:52.886Z,74.90
2019-01-21T20:55:52.901Z,64.10
2019-01-21T20:56:52.923Z,65.80
2019-01-21T20:57:52.841Z,64.20
2019-01-21T20:58:53.066Z,64.30
2019-01-21T20:59:52.865Z,71.00
2019-01-21T21:00:52.790Z,71.20
2019-01-21T21:01:54.986Z,64.90
2019-01-21T21:02:52.832Z,64.60
2019-01-21T21:03:52.887Z,69.20
2019-01-21T21:04:52.795Z,65.70
2019-01-21T21:05:52.744Z,64.70
2019-01-21T21:06:52.830Z,68.20
2019-01-21T21:07:52.949Z,66.10
2019-01-21T21:08:56.804Z,67.50
2019-01-21T21:10:13.806Z,66.40
2019-01-21T21:10:53.720Z,67.90
2019-01-21T21:11:53.627Z,66.40
2019-01-21T21:12:56.823Z,61.60
2019-01-21T21:13:52.739Z,66.90
2019-01-21T21:14:52.799Z,63.80
2019-01-21T21:15:52.655Z,62.20
2019-01-21T21:18:27.230Z,62.80
2019-01-21T21:19:27.126Z,63.90
2019-01-21T21:20:27.737Z,64.40
2019-01-21T21:21:27.403Z,68.10
2019-01-21T21:22:27.179Z,62.50
2019-01-21T21:23:26.937Z,62.30
2019-01-21T21:24:36.096Z,70.90
2019-01-21T21:25:27.807Z,66.80
2019-01-21T21:26:34.762Z,68.30
2019-01-21T21:27:27.104Z,68.00
2019-01-21T21:28:29.835Z,65.60
2019-01-21T21:29:27.201Z,71.40
2019-01-21T21:30:26.882Z,73.70
2019-01-21T21:31:26.907Z,64.00
2019-01-21T21:32:26.883Z,65.40
2019-01-21T21:33:26.834Z,64.30
2019-01-21T21:34:27.758Z,70.30
2019-01-21T21:35:26.888Z,65.00
2019-01-21T21:36:26.806Z,66.30
2019-01-21T21:37:26.812Z,60.40
2019-01-21T21:38:26.797Z,67.90
2019-01-21T21:39:26.772Z,70.40
2019-01-21T21:40:26.782Z,69.10
2019-01-21T21:41:26.750Z,65.10
2019-01-21T21:42:26.759Z,68.40
2019-01-21T21:43:26.730Z,69.20
2019-01-21T21:44:26.877Z,69.60
2019-01-21T21:45:27.940Z,68.50
2019-01-21T21:46:26.705Z,77.00
2019-01-21T21:47:34.359Z,70.30
2019-01-21T21:48:31.680Z,77.90
2019-01-21T21:50:37.530Z,69.80
2019-01-21T21:51:45.038Z,72.30
2019-01-21T21:52:37.509Z,78.80
2019-01-21T21:53:37.793Z,73.40
2019-01-21T21:54:37.422Z,72.70
2019-01-21T21:55:46.800Z,69.30
2019-01-21T21:56:37.473Z,70.20
2019-01-21T21:57:37.448Z,73.00
2019-01-21T21:58:37.366Z,69.50
2019-01-21T21:59:37.341Z,70.10
2019-01-21T22:00:37.329Z,69.50
2019-01-21T22:01:40.128Z,66.10
2019-01-21T22:02:37.325Z,76.20
2019-01-21T22:03:44.957Z,71.10
2019-01-21T22:04:37.367Z,71.30
2019-01-21T22:05:37.412Z,70.90
2019-01-21T22:06:37.275Z,68.90
2019-01-21T22:07:37.338Z,68.30
2019-01-21T22:08:45.113Z,67.90
2019-01-21T22:09:37.312Z,66.70
2019-01-21T22:10:44.907Z,71.80
2019-01-21T22:11:37.227Z,69.60
2019-01-21T22:12:38.255Z,71.60
2019-01-21T22:13:38.276Z,72.00
2019-01-21T22:14:37.251Z,78.00
2019-01-21T22:15:46.345Z,64.80
2019-01-21T22:16:37.233Z,77.60
2019-01-21T22:17:44.840Z,73.80
2019-01-21T22:18:37.185Z,67.50
2019-01-21T22:19:37.257Z,68.70
2019-01-21T22:20:37.139Z,66.70
2019-01-21T22:21:37.114Z,69.60
2019-01-21T22:22:37.103Z,68.60
2019-01-21T22:23:37.158Z,63.20
2019-01-21T22:24:37.088Z,67.80
2019-01-21T22:25:44.690Z,67.20
2019-01-21T22:26:44.790Z,65.30
2019-01-21T22:27:45.827Z,66.60
2019-01-21T22:28:37.140Z,63.80
2019-01-21T22:29:44.803Z,65.10
2019-01-21T22:30:37.098Z,62.70
2019-01-21T22:31:45.982Z,60.50
2019-01-21T22:32:37.119Z,61.90
2019-01-21T22:33:44.729Z,64.70
2019-01-21T22:34:37.365Z,63.00
2019-01-21T22:35:37.275Z,62.90
2019-01-21T22:36:44.607Z,61.60
2019-01-21T22:37:46.590Z,70.50
2019-01-21T22:38:45.825Z,61.10
2019-01-21T22:39:36.998Z,61.00
2019-01-21T22:40:37.101Z,60.40
2019-01-21T22:41:36.929Z,61.00
2019-01-21T22:42:36.922Z,60.30
2019-01-21T22:45:41.033Z,63.60
2019-01-21T23:57:42.080Z,56.80
